createdAt,value
2023-01-26T00:01:08.058Z,4.70
2023-01-26T00:03:34.390Z,4.90
2023-01-26T00:06:10.299Z,4.91
2023-01-26T00:08:42.367Z,4.92
2023-01-26T00:11:11.014Z,4.89
2023-01-26T00:13:38.362Z,4.91
2023-01-26T00:16:09.115Z,4.97
2023-01-26T00:18:37.497Z,5.01
2023-01-26T00:21:04.453Z,5.01
2023-01-26T00:23:32.598Z,5.02
2023-01-26T00:25:59.561Z,5.06
2023-01-26T00:28:28.386Z,5.02
2023-01-26T00:31:05.631Z,5.05
2023-01-26T00:33:31.938Z,5.03
2023-01-26T00:35:58.753Z,5.02
2023-01-26T00:38:26.686Z,5.01
2023-01-26T00:40:53.230Z,5.04
2023-01-26T00:43:20.150Z,4.98
2023-01-26T00:45:46.946Z,4.98
2023-01-26T00:48:13.506Z,4.90
2023-01-26T00:50:39.897Z,4.96
2023-01-26T00:53:06.084Z,4.95
2023-01-26T00:55:32.779Z,4.96
2023-01-26T00:58:01.109Z,5.11
2023-01-26T01:00:30.659Z,5.05
2023-01-26T01:02:57.689Z,4.87
2023-01-26T01:05:26.864Z,4.92
2023-01-26T01:07:53.031Z,5.01
2023-01-26T01:10:19.758Z,4.98
2023-01-26T01:12:45.929Z,5.00
2023-01-26T01:15:12.537Z,5.01
2023-01-26T01:17:38.930Z,5.01
2023-01-26T01:20:09.687Z,4.96
2023-01-26T01:22:36.653Z,4.96
2023-01-26T01:25:03.953Z,4.94
2023-01-26T01:27:30.130Z,5.00
2023-01-26T01:29:56.595Z,4.90
2023-01-26T01:32:23.028Z,4.99
2023-01-26T01:34:49.948Z,5.04
2023-01-26T01:37:17.230Z,4.97
2023-01-26T01:39:43.751Z,4.94
2023-01-26T01:42:09.960Z,4.92
2023-01-26T01:44:37.943Z,4.82
2023-01-26T01:47:22.585Z,4.77
2023-01-26T01:49:51.672Z,4.71
2023-01-26T01:52:29.941Z,4.80
2023-01-26T01:55:07.773Z,4.71
2023-01-26T01:57:46.293Z,4.77
2023-01-26T02:00:15.396Z,4.84
2023-01-26T02:02:44.544Z,4.88
2023-01-26T02:05:32.670Z,4.99
2023-01-26T02:08:00.879Z,5.03
2023-01-26T02:10:28.088Z,5.03
2023-01-26T02:13:01.594Z,5.08
2023-01-26T02:15:29.968Z,5.03
2023-01-26T02:18:00.280Z,4.83
2023-01-26T02:20:33.423Z,4.97
2023-01-26T02:23:17.979Z,5.04
2023-01-26T02:25:53.471Z,5.02
2023-01-26T02:28:24.762Z,5.01
2023-01-26T02:30:53.508Z,5.09
2023-01-26T02:33:21.941Z,5.12
2023-01-26T02:35:49.249Z,5.07
2023-01-26T02:38:18.384Z,5.07
2023-01-26T02:41:07.767Z,5.01
2023-01-26T02:43:34.944Z,5.12
2023-01-26T02:46:04.151Z,4.92
2023-01-26T02:48:50.931Z,4.95
2023-01-26T02:51:17.479Z,4.88
2023-01-26T02:53:45.696Z,4.75
2023-01-26T02:56:12.252Z,4.72
2023-01-26T02:58:38.476Z,4.92
2023-01-26T03:01:05.163Z,4.91
2023-01-26T03:03:44.791Z,4.85
2023-01-26T03:06:12.288Z,4.73
2023-01-26T03:08:38.978Z,4.68
2023-01-26T03:11:07.181Z,4.62
2023-01-26T03:13:34.372Z,4.56
2023-01-26T03:16:05.967Z,4.59
2023-01-26T03:18:52.817Z,4.47
2023-01-26T03:21:40.371Z,4.60
2023-01-26T03:24:30.153Z,4.50
2023-01-26T03:27:16.411Z,4.76
2023-01-26T03:29:42.660Z,4.92
2023-01-26T03:32:11.051Z,5.01
2023-01-26T03:34:38.705Z,5.04
2023-01-26T03:37:05.471Z,5.00
2023-01-26T03:40:02.848Z,5.07
2023-01-26T03:42:48.481Z,4.99
2023-01-26T03:45:33.675Z,4.78
2023-01-26T03:48:30.819Z,4.73
2023-01-26T03:51:16.743Z,4.71
2023-01-26T03:54:05.127Z,4.85
2023-01-26T03:56:34.190Z,4.98
2023-01-26T03:59:07.625Z,4.84
2023-01-26T04:02:01.822Z,4.74
2023-01-26T04:04:47.927Z,4.63
2023-01-26T04:07:33.277Z,4.70
2023-01-26T04:09:59.768Z,4.68
2023-01-26T04:12:25.921Z,4.80
2023-01-26T04:15:43.452Z,4.90
2023-01-26T04:18:28.764Z,4.91
2023-01-26T04:21:14.737Z,4.96
2023-01-26T04:23:43.146Z,5.03
2023-01-26T04:26:09.567Z,5.00
2023-01-26T04:28:36.259Z,5.04
2023-01-26T04:31:03.953Z,5.04
2023-01-26T04:33:31.722Z,4.87
2023-01-26T04:36:08.635Z,4.81
2023-01-26T04:38:38.661Z,4.83
2023-01-26T04:41:05.208Z,4.88
2023-01-26T04:43:37.635Z,4.79
2023-01-26T04:46:06.661Z,4.80
2023-01-26T04:48:35.363Z,4.76
2023-01-26T04:51:06.490Z,4.64
2023-01-26T04:53:32.952Z,4.73
2023-01-26T04:55:59.980Z,4.71
2023-01-26T04:58:26.305Z,4.67
2023-01-26T05:00:54.452Z,4.62
2023-01-26T05:03:21.168Z,4.74
2023-01-26T05:05:49.862Z,4.68
2023-01-26T05:08:18.810Z,4.68
2023-01-26T05:10:46.081Z,4.65
2023-01-26T05:13:22.172Z,4.64
2023-01-26T05:16:03.936Z,4.66
2023-01-26T05:18:48.613Z,4.63
2023-01-26T05:21:26.603Z,4.59
2023-01-26T05:23:54.227Z,4.64
2023-01-26T05:26:40.904Z,4.62
2023-01-26T05:29:12.029Z,4.67
2023-01-26T05:31:38.560Z,4.64
2023-01-26T05:34:05.176Z,4.49
2023-01-26T05:36:33.983Z,4.44
2023-01-26T05:39:00.519Z,4.52
2023-01-26T05:41:27.621Z,4.54
2023-01-26T05:44:12.323Z,4.52
2023-01-26T05:47:01.852Z,4.36
2023-01-26T05:49:28.376Z,4.48
2023-01-26T05:51:56.857Z,4.24
2023-01-26T05:54:24.173Z,4.25
2023-01-26T05:56:52.641Z,4.33
2023-01-26T05:59:19.247Z,4.23
2023-01-26T06:01:46.249Z,4.27
2023-01-26T06:04:12.940Z,4.39
2023-01-26T06:06:59.051Z,4.30
2023-01-26T06:09:33.112Z,4.38
2023-01-26T06:12:16.209Z,4.40
2023-01-26T06:15:12.016Z,4.42
2023-01-26T06:17:42.118Z,4.35
2023-01-26T06:20:14.174Z,4.39
2023-01-26T06:22:43.915Z,4.36
2023-01-26T06:25:10.628Z,4.40
2023-01-26T06:27:41.264Z,4.39
2023-01-26T06:30:15.213Z,4.58
2023-01-26T06:32:41.952Z,4.64
2023-01-26T06:35:08.664Z,4.55
2023-01-26T06:37:35.427Z,4.58
2023-01-26T06:40:02.047Z,4.51
2023-01-26T06:42:28.642Z,4.50
2023-01-26T06:44:56.749Z,4.52
2023-01-26T06:47:23.345Z,4.68
2023-01-26T06:49:50.031Z,4.65
2023-01-26T06:52:30.515Z,4.35
2023-01-26T06:55:03.183Z,4.25
2023-01-26T06:57:51.335Z,4.34
2023-01-26T07:00:35.899Z,4.26
2023-01-26T07:03:15.195Z,4.26
2023-01-26T07:05:41.490Z,4.19
2023-01-26T07:08:08.117Z,4.54
2023-01-26T07:10:37.977Z,4.47
2023-01-26T07:13:05.461Z,4.50
2023-01-26T07:15:32.159Z,4.55
2023-01-26T07:17:59.681Z,4.56
2023-01-26T07:20:26.472Z,4.72
2023-01-26T07:22:53.139Z,4.72
2023-01-26T07:25:19.313Z,4.51
2023-01-26T07:27:45.705Z,4.38
2023-01-26T07:30:15.415Z,4.50
2023-01-26T07:32:41.971Z,4.68
2023-01-26T07:35:08.386Z,4.78
2023-01-26T07:37:35.263Z,4.76
2023-01-26T07:40:02.897Z,4.64
2023-01-26T07:42:30.273Z,4.71
2023-01-26T07:45:17.193Z,4.65
2023-01-26T07:47:44.036Z,4.54
2023-01-26T07:50:11.477Z,4.50
2023-01-26T07:52:38.427Z,4.51
2023-01-26T07:55:05.159Z,4.64
2023-01-26T07:57:33.558Z,4.65
2023-01-26T07:59:59.703Z,4.69
2023-01-26T08:02:26.254Z,4.59
2023-01-26T08:04:52.734Z,4.63
2023-01-26T08:07:19.225Z,4.63
2023-01-26T08:09:45.347Z,4.79
2023-01-26T08:12:11.917Z,4.94
2023-01-26T08:14:46.333Z,4.98
2023-01-26T08:17:16.496Z,5.08
2023-01-26T08:19:43.314Z,5.20
2023-01-26T08:22:10.002Z,5.29
2023-01-26T08:24:36.385Z,5.25
2023-01-26T08:27:03.169Z,5.30
2023-01-26T08:29:29.577Z,5.43
2023-01-26T08:31:56.110Z,5.30
2023-01-26T08:34:22.429Z,5.17
2023-01-26T08:36:48.875Z,5.14
2023-01-26T08:39:15.202Z,4.87
2023-01-26T08:41:41.820Z,4.93
2023-01-26T08:44:09.510Z,4.78
2023-01-26T08:46:36.082Z,4.81
2023-01-26T08:49:02.258Z,4.90
2023-01-26T08:51:28.695Z,4.95
2023-01-26T08:53:55.209Z,5.05
2023-01-26T08:56:22.064Z,5.06
2023-01-26T08:58:48.525Z,5.04
2023-01-26T09:01:16.148Z,5.07
2023-01-26T09:03:43.891Z,5.08
2023-01-26T09:06:12.872Z,5.06
2023-01-26T09:08:39.144Z,5.00
2023-01-26T09:11:06.728Z,4.76
2023-01-26T09:13:33.181Z,4.70
2023-01-26T09:16:03.323Z,4.84
2023-01-26T09:18:29.667Z,4.96
2023-01-26T09:21:02.227Z,5.09
2023-01-26T09:23:28.573Z,4.90
2023-01-26T09:25:55.410Z,5.03
2023-01-26T09:28:21.694Z,5.11
2023-01-26T09:30:48.329Z,5.03
2023-01-26T09:33:14.765Z,4.78
2023-01-26T09:35:41.548Z,4.78
2023-01-26T09:38:07.909Z,4.89
2023-01-26T09:41:02.575Z,4.83
2023-01-26T09:43:51.860Z,4.62
2023-01-26T09:46:23.392Z,4.68
2023-01-26T09:49:10.425Z,4.76
2023-01-26T09:52:01.837Z,4.60
2023-01-26T09:54:39.428Z,4.68
2023-01-26T09:57:15.639Z,4.56
2023-01-26T09:59:47.960Z,4.66
2023-01-26T10:02:42.892Z,4.88
2023-01-26T10:05:19.833Z,4.89
2023-01-26T10:07:46.741Z,4.83
2023-01-26T10:10:23.076Z,4.76
2023-01-26T10:12:50.983Z,4.83
2023-01-26T10:15:39.919Z,4.80
2023-01-26T10:18:16.391Z,4.85
2023-01-26T10:20:48.494Z,4.66
2023-01-26T10:23:34.927Z,4.74
2023-01-26T10:26:10.537Z,4.72
2023-01-26T10:28:37.679Z,4.81
2023-01-26T10:31:29.945Z,4.59
2023-01-26T10:34:08.681Z,4.78
2023-01-26T10:36:34.895Z,4.72
2023-01-26T10:39:09.095Z,4.68
2023-01-26T10:41:36.203Z,4.63
2023-01-26T10:44:15.013Z,4.86
2023-01-26T10:46:42.331Z,4.71
2023-01-26T10:49:09.097Z,4.95
2023-01-26T10:51:38.471Z,4.71
2023-01-26T10:54:17.168Z,4.55
2023-01-26T10:56:45.348Z,4.84
2023-01-26T10:59:21.253Z,4.89
2023-01-26T11:01:52.233Z,5.01
2023-01-26T11:04:19.401Z,5.09
2023-01-26T11:06:46.368Z,5.17
2023-01-26T11:09:25.627Z,5.22
2023-01-26T11:12:17.316Z,5.17
2023-01-26T11:14:59.739Z,5.18
2023-01-26T11:17:30.506Z,5.22
2023-01-26T11:20:20.367Z,5.26
2023-01-26T11:23:12.644Z,5.35
2023-01-26T11:26:07.117Z,5.31
2023-01-26T11:28:56.696Z,5.28
2023-01-26T11:31:32.058Z,5.24
2023-01-26T11:34:27.970Z,5.31
2023-01-26T11:37:14.923Z,5.37
2023-01-26T11:39:47.450Z,5.42
2023-01-26T11:42:36.102Z,5.46
2023-01-26T11:45:25.883Z,5.49
2023-01-26T11:48:25.501Z,5.45
2023-01-26T11:51:04.151Z,5.22
2023-01-26T11:54:02.581Z,4.99
2023-01-26T11:56:29.914Z,4.99
2023-01-26T11:59:41.245Z,5.05
2023-01-26T12:02:31.301Z,4.89
2023-01-26T12:05:02.875Z,4.90
2023-01-26T12:07:56.440Z,5.08
2023-01-26T12:10:33.275Z,4.94
2023-01-26T12:13:34.907Z,5.19
2023-01-26T12:16:13.035Z,5.32
2023-01-26T12:18:58.788Z,5.21
2023-01-26T12:21:36.533Z,5.16
2023-01-26T12:24:05.671Z,5.09
2023-01-26T12:26:36.414Z,5.20
2023-01-26T12:29:28.090Z,5.22
2023-01-26T12:32:00.425Z,5.28
2023-01-26T12:34:29.329Z,5.20
2023-01-26T12:37:21.229Z,5.14
2023-01-26T12:39:51.020Z,5.04
2023-01-26T12:42:30.602Z,4.97
2023-01-26T12:45:01.103Z,5.05
2023-01-26T12:47:39.426Z,5.18
2023-01-26T12:50:11.953Z,5.21
2023-01-26T12:53:17.714Z,5.25
2023-01-26T12:55:56.105Z,5.28
2023-01-26T12:58:32.961Z,5.05
2023-01-26T13:01:11.583Z,5.03
2023-01-26T13:03:42.721Z,4.96
2023-01-26T13:06:09.330Z,5.00
2023-01-26T13:08:35.798Z,4.97
2023-01-26T13:11:08.828Z,4.71
2023-01-26T13:13:56.372Z,4.58
2023-01-26T13:16:23.665Z,4.69
2023-01-26T13:18:51.398Z,4.51
2023-01-26T13:21:39.919Z,4.36
2023-01-26T13:24:16.015Z,4.44
2023-01-26T13:26:50.921Z,4.61
2023-01-26T13:29:26.661Z,4.35
2023-01-26T13:31:57.087Z,4.57
2023-01-26T13:34:33.212Z,4.57
2023-01-26T13:37:09.611Z,4.44
2023-01-26T13:39:40.612Z,4.41
2023-01-26T13:42:23.597Z,4.63
2023-01-26T13:45:00.206Z,4.68
2023-01-26T13:47:39.969Z,4.70
2023-01-26T13:50:36.895Z,4.51
2023-01-26T13:53:25.634Z,4.42
2023-01-26T13:55:57.919Z,4.26
2023-01-26T13:58:24.729Z,4.27
2023-01-26T14:01:11.360Z,4.28
2023-01-26T14:03:37.727Z,4.27
2023-01-26T14:06:10.565Z,4.19
2023-01-26T14:08:38.376Z,4.22
2023-01-26T14:11:16.129Z,4.25
2023-01-26T14:13:42.828Z,4.27
2023-01-26T14:16:21.228Z,4.29
2023-01-26T14:18:48.798Z,4.35
2023-01-26T14:21:21.520Z,4.49
2023-01-26T14:23:56.003Z,4.55
2023-01-26T14:26:30.523Z,4.50
2023-01-26T14:28:59.840Z,4.49
2023-01-26T14:31:28.626Z,4.56
2023-01-26T14:33:58.084Z,4.48
2023-01-26T14:36:27.768Z,4.38
2023-01-26T14:38:55.562Z,4.34
2023-01-26T14:41:28.840Z,4.36
2023-01-26T14:43:59.767Z,4.35
2023-01-26T14:46:48.916Z,4.29
2023-01-26T14:49:42.445Z,4.37
2023-01-26T14:52:19.042Z,4.60
2023-01-26T14:54:45.538Z,4.55
2023-01-26T14:57:19.176Z,4.45
2023-01-26T14:59:50.662Z,4.44
2023-01-26T15:02:20.764Z,4.46
2023-01-26T15:05:13.537Z,4.37
2023-01-26T15:07:40.402Z,4.42
2023-01-26T15:10:25.547Z,4.52
2023-01-26T15:12:57.398Z,4.44
2023-01-26T15:15:29.108Z,4.58
2023-01-26T15:18:16.163Z,4.60
2023-01-26T15:20:53.413Z,4.60
2023-01-26T15:23:25.478Z,4.67
2023-01-26T15:25:52.008Z,4.57
2023-01-26T15:28:25.332Z,4.54
2023-01-26T15:30:55.030Z,4.62
2023-01-26T15:33:40.443Z,4.68
2023-01-26T15:36:42.932Z,4.25
2023-01-26T15:39:13.998Z,4.07
2023-01-26T15:41:42.570Z,4.00
2023-01-26T15:44:18.121Z,3.92
2023-01-26T15:46:45.086Z,3.87
2023-01-26T15:49:12.783Z,3.91
2023-01-26T15:51:39.137Z,3.91
2023-01-26T15:54:06.018Z,3.88
2023-01-26T15:56:32.615Z,3.96
2023-01-26T15:58:59.467Z,3.84
2023-01-26T16:01:26.329Z,3.80
2023-01-26T16:03:52.987Z,3.93
2023-01-26T16:06:28.353Z,3.90
2023-01-26T16:08:56.049Z,3.78
2023-01-26T16:11:28.158Z,3.79
2023-01-26T16:14:03.197Z,3.85
2023-01-26T16:16:31.893Z,3.81
2023-01-26T16:18:59.149Z,3.69
2023-01-26T16:21:29.574Z,3.92
2023-01-26T16:23:56.679Z,3.88
2023-01-26T16:26:23.084Z,3.92
2023-01-26T16:28:49.714Z,3.98
2023-01-26T16:31:22.133Z,3.78
2023-01-26T16:33:49.544Z,3.75
2023-01-26T16:36:17.356Z,3.62
2023-01-26T16:38:44.429Z,3.51
2023-01-26T16:41:27.504Z,3.54
2023-01-26T16:44:03.179Z,3.59
2023-01-26T16:46:30.273Z,3.70
2023-01-26T16:48:56.933Z,3.67
2023-01-26T16:51:26.421Z,3.68
2023-01-26T16:53:53.580Z,3.74
2023-01-26T16:56:21.091Z,3.78
2023-01-26T16:58:47.740Z,3.82
2023-01-26T17:01:20.464Z,3.88
2023-01-26T17:03:47.899Z,3.92
2023-01-26T17:06:15.803Z,4.06
2023-01-26T17:08:42.742Z,3.97
2023-01-26T17:11:15.020Z,3.82
2023-01-26T17:13:41.821Z,3.84
2023-01-26T17:16:13.349Z,3.84
2023-01-26T17:18:40.849Z,3.93
2023-01-26T17:21:07.240Z,3.82
2023-01-26T17:23:36.734Z,3.80
2023-01-26T17:26:03.408Z,3.79
2023-01-26T17:28:30.060Z,4.01
2023-01-26T17:30:56.393Z,3.93
2023-01-26T17:33:23.131Z,3.86
2023-01-26T17:35:58.866Z,3.73
2023-01-26T17:38:25.553Z,3.64
2023-01-26T17:40:56.124Z,3.73
2023-01-26T17:43:23.185Z,3.85
2023-01-26T17:45:49.412Z,3.70
2023-01-26T17:48:16.476Z,3.71
2023-01-26T17:50:51.817Z,3.84
2023-01-26T17:53:18.479Z,3.87
2023-01-26T17:55:46.075Z,4.04
2023-01-26T17:58:12.737Z,3.85
2023-01-26T18:00:39.737Z,3.73
2023-01-26T18:03:06.433Z,3.81
2023-01-26T18:05:32.868Z,3.63
2023-01-26T18:07:59.574Z,3.78
2023-01-26T18:10:29.618Z,3.82
2023-01-26T18:12:57.171Z,3.75
2023-01-26T18:15:24.026Z,3.99
2023-01-26T18:17:51.544Z,3.83
2023-01-26T18:20:18.076Z,3.60
2023-01-26T18:22:45.311Z,3.59
2023-01-26T18:25:11.865Z,3.61
2023-01-26T18:27:38.839Z,3.60
2023-01-26T18:30:05.758Z,3.52
2023-01-26T18:32:32.471Z,3.61
2023-01-26T18:34:59.343Z,3.69
2023-01-26T18:37:27.576Z,3.61
2023-01-26T18:39:53.821Z,3.67
2023-01-26T18:42:20.335Z,3.70
2023-01-26T18:44:46.648Z,3.98
2023-01-26T18:47:13.224Z,3.91
2023-01-26T18:49:39.699Z,4.03
2023-01-26T18:52:06.202Z,3.87
2023-01-26T18:54:33.402Z,3.81
2023-01-26T18:56:59.931Z,3.71
2023-01-26T18:59:26.468Z,3.73
2023-01-26T19:01:54.789Z,3.56
2023-01-26T19:04:21.099Z,3.66
2023-01-26T19:06:47.765Z,3.61
2023-01-26T19:09:14.009Z,3.72
2023-01-26T19:11:40.978Z,3.85
2023-01-26T19:14:11.581Z,3.88
2023-01-26T19:16:39.564Z,4.01
2023-01-26T19:19:05.814Z,3.96
2023-01-26T19:21:33.942Z,3.83
2023-01-26T19:24:05.855Z,3.68
2023-01-26T19:26:33.205Z,3.63
2023-01-26T19:28:59.551Z,3.57
2023-01-26T19:31:27.063Z,3.50
2023-01-26T19:33:56.639Z,3.46
2023-01-26T19:36:24.197Z,3.42
2023-01-26T19:38:50.691Z,3.28
2023-01-26T19:41:18.216Z,3.28
2023-01-26T19:43:44.426Z,3.34
2023-01-26T19:46:12.783Z,3.33
2023-01-26T19:48:39.459Z,3.30
2023-01-26T19:51:11.857Z,3.22
2023-01-26T19:53:41.365Z,3.25
2023-01-26T19:56:15.713Z,3.35
2023-01-26T19:58:43.021Z,3.30
2023-01-26T20:01:11.606Z,3.40
2023-01-26T20:03:38.430Z,3.45
2023-01-26T20:06:05.903Z,3.29
2023-01-26T20:08:33.134Z,3.37
2023-01-26T20:11:04.964Z,3.57
2023-01-26T20:13:33.191Z,3.74
2023-01-26T20:16:00.724Z,3.76
2023-01-26T20:18:27.200Z,3.89
2023-01-26T20:20:55.723Z,3.83
2023-01-26T20:23:23.195Z,3.91
2023-01-26T20:25:51.068Z,3.84
2023-01-26T20:28:18.450Z,3.99
2023-01-26T20:30:45.837Z,3.94
2023-01-26T20:33:12.293Z,4.00
2023-01-26T20:35:39.738Z,3.98
2023-01-26T20:38:06.136Z,3.98
2023-01-26T20:40:33.115Z,4.00
2023-01-26T20:42:59.685Z,3.89
2023-01-26T20:45:26.637Z,3.77
2023-01-26T20:47:53.123Z,3.70
2023-01-26T20:50:20.250Z,3.63
2023-01-26T20:52:46.647Z,3.59
2023-01-26T20:55:13.449Z,3.53
2023-01-26T20:57:39.731Z,3.53
2023-01-26T21:00:07.278Z,3.49
2023-01-26T21:02:33.987Z,3.37
2023-01-26T21:05:00.689Z,3.36
2023-01-26T21:07:28.084Z,3.40
2023-01-26T21:09:54.898Z,3.33
2023-01-26T21:12:21.173Z,3.32
2023-01-26T21:14:47.947Z,3.35
2023-01-26T21:17:15.917Z,3.32
2023-01-26T21:19:42.895Z,3.40
2023-01-26T21:22:09.461Z,3.41
2023-01-26T21:24:36.293Z,3.39
2023-01-26T21:27:02.621Z,3.35
2023-01-26T21:29:29.514Z,3.42
2023-01-26T21:31:56.256Z,3.48
2023-01-26T21:34:23.210Z,3.59
2023-01-26T21:36:49.437Z,3.48
2023-01-26T21:39:16.612Z,3.47
2023-01-26T21:41:55.698Z,3.49
2023-01-26T21:44:25.140Z,3.59
2023-01-26T21:46:54.122Z,3.62
2023-01-26T21:49:21.002Z,3.64
2023-01-26T21:52:06.272Z,3.46
2023-01-26T21:54:33.309Z,3.71
2023-01-26T21:57:01.571Z,3.68
2023-01-26T21:59:29.575Z,3.65
2023-01-26T22:01:57.514Z,3.63
2023-01-26T22:04:27.350Z,3.66
2023-01-26T22:06:55.096Z,3.59
2023-01-26T22:09:23.082Z,3.55
2023-01-26T22:11:50.515Z,3.48
2023-01-26T22:14:22.903Z,3.45
2023-01-26T22:16:49.622Z,3.46
2023-01-26T22:19:15.955Z,3.49
2023-01-26T22:21:42.597Z,3.42
2023-01-26T22:24:12.441Z,3.45
2023-01-26T22:26:39.515Z,3.56
2023-01-26T22:29:06.258Z,3.61
2023-01-26T22:31:33.302Z,3.76
2023-01-26T22:34:00.822Z,3.74
2023-01-26T22:36:28.849Z,3.71
2023-01-26T22:38:55.707Z,3.69
2023-01-26T22:41:25.003Z,3.71
2023-01-26T22:43:53.617Z,3.64
2023-01-26T22:46:22.232Z,3.65
2023-01-26T22:48:48.710Z,3.59
2023-01-26T22:51:20.706Z,3.61
2023-01-26T22:53:48.744Z,3.65
2023-01-26T22:56:15.629Z,3.81
2023-01-26T22:58:56.608Z,3.67
2023-01-26T23:01:25.775Z,3.57
2023-01-26T23:03:53.933Z,3.49
2023-01-26T23:06:20.958Z,3.57
2023-01-26T23:08:52.568Z,3.54
2023-01-26T23:11:24.617Z,3.49
2023-01-26T23:13:52.467Z,3.54
2023-01-26T23:16:20.538Z,3.61
2023-01-26T23:18:46.798Z,3.58
2023-01-26T23:21:13.533Z,3.63
2023-01-26T23:23:40.288Z,3.72
2023-01-26T23:26:08.604Z,3.66
2023-01-26T23:28:37.432Z,3.75
2023-01-26T23:31:04.680Z,3.68
2023-01-26T23:33:32.711Z,3.75
2023-01-26T23:35:59.613Z,3.75
2023-01-26T23:38:28.023Z,3.80
2023-01-26T23:40:54.752Z,3.83
2023-01-26T23:43:21.848Z,3.77
2023-01-26T23:45:49.909Z,3.82
2023-01-26T23:48:17.600Z,3.84
2023-01-26T23:50:44.629Z,3.83
2023-01-26T23:53:11.169Z,3.83
2023-01-26T23:55:41.969Z,3.80
2023-01-26T23:58:09.252Z,4.09
